sensor_id;sensor_type;location;lat;lon;timestamp;P1;durP1;ratioP1;P2;durP2;ratioP2
75548;SDS011;64133;56.002;37.208;2023-06-14T00:05:01;6.50;;;3.33;;
75548;SDS011;64133;56.002;37.208;2023-06-14T00:10:06;4.72;;;2.42;;
75548;SDS011;64133;56.002;37.208;2023-06-14T00:15:11;6.35;;;2.30;;
75548;SDS011;64133;56.002;37.208;2023-06-14T00:20:16;4.22;;;2.42;;
75548;SDS011;64133;56.002;37.208;2023-06-14T00:25:21;6.62;;;2.55;;
75548;SDS011;64133;56.002;37.208;2023-06-14T00:30:26;4.75;;;2.77;;
75548;SDS011;64133;56.002;37.208;2023-06-14T00:35:31;3.83;;;2.08;;
75548;SDS011;64133;56.002;37.208;2023-06-14T00:40:35;6.87;;;2.40;;
75548;SDS011;64133;56.002;37.208;2023-06-14T00:45:40;6.40;;;2.80;;
75548;SDS011;64133;56.002;37.208;2023-06-14T00:50:45;6.30;;;2.60;;
75548;SDS011;64133;56.002;37.208;2023-06-14T00:55:49;4.85;;;2.80;;
75548;SDS011;64133;56.002;37.208;2023-06-14T01:00:54;7.35;;;2.92;;
75548;SDS011;64133;56.002;37.208;2023-06-14T01:06:01;11.10;;;3.27;;
75548;SDS011;64133;56.002;37.208;2023-06-14T01:11:07;5.70;;;2.60;;
75548;SDS011;64133;56.002;37.208;2023-06-14T01:16:11;6.95;;;2.15;;
75548;SDS011;64133;56.002;37.208;2023-06-14T01:21:23;5.03;;;2.65;;
75548;SDS011;64133;56.002;37.208;2023-06-14T01:31:41;5.67;;;3.12;;
75548;SDS011;64133;56.002;37.208;2023-06-14T01:42:13;6.85;;;2.60;;
75548;SDS011;64133;56.002;37.208;2023-06-14T01:47:18;5.87;;;3.10;;
75548;SDS011;64133;56.002;37.208;2023-06-14T01:52:23;8.90;;;3.50;;
75548;SDS011;64133;56.002;37.208;2023-06-14T01:57:27;7.85;;;2.72;;
75548;SDS011;64133;56.002;37.208;2023-06-14T02:02:32;5.45;;;2.55;;
75548;SDS011;64133;56.002;37.208;2023-06-14T02:07:37;4.97;;;2.98;;
75548;SDS011;64133;56.002;37.208;2023-06-14T02:12:42;6.58;;;2.95;;
75548;SDS011;64133;56.002;37.208;2023-06-14T02:17:47;8.03;;;3.00;;
75548;SDS011;64133;56.002;37.208;2023-06-14T02:22:52;6.17;;;2.67;;
75548;SDS011;64133;56.002;37.208;2023-06-14T02:27:57;5.78;;;2.90;;
75548;SDS011;64133;56.002;37.208;2023-06-14T02:33:02;5.67;;;2.65;;
75548;SDS011;64133;56.002;37.208;2023-06-14T02:38:07;5.12;;;2.83;;
75548;SDS011;64133;56.002;37.208;2023-06-14T02:43:12;5.22;;;2.80;;
75548;SDS011;64133;56.002;37.208;2023-06-14T02:48:17;5.47;;;2.70;;
75548;SDS011;64133;56.002;37.208;2023-06-14T02:53:22;6.58;;;2.92;;
75548;SDS011;64133;56.002;37.208;2023-06-14T02:58:27;8.68;;;2.92;;
75548;SDS011;64133;56.002;37.208;2023-06-14T03:03:32;5.78;;;2.47;;
75548;SDS011;64133;56.002;37.208;2023-06-14T03:08:37;4.55;;;2.58;;
75548;SDS011;64133;56.002;37.208;2023-06-14T03:13:41;3.83;;;2.50;;
75548;SDS011;64133;56.002;37.208;2023-06-14T03:18:46;4.97;;;2.80;;
75548;SDS011;64133;56.002;37.208;2023-06-14T03:23:51;4.67;;;2.80;;
75548;SDS011;64133;56.002;37.208;2023-06-14T03:28:56;10.93;;;3.30;;
75548;SDS011;64133;56.002;37.208;2023-06-14T03:34:01;4.35;;;2.62;;
75548;SDS011;64133;56.002;37.208;2023-06-14T03:39:05;4.15;;;2.58;;
75548;SDS011;64133;56.002;37.208;2023-06-14T03:44:10;4.47;;;2.35;;
75548;SDS011;64133;56.002;37.208;2023-06-14T03:49:15;5.47;;;2.77;;
75548;SDS011;64133;56.002;37.208;2023-06-14T03:54:19;5.55;;;2.75;;
75548;SDS011;64133;56.002;37.208;2023-06-14T03:59:24;6.42;;;2.92;;
75548;SDS011;64133;56.002;37.208;2023-06-14T04:04:29;5.42;;;2.62;;
75548;SDS011;64133;56.002;37.208;2023-06-14T04:09:34;3.83;;;2.67;;
75548;SDS011;64133;56.002;37.208;2023-06-14T04:14:38;4.55;;;2.52;;
75548;SDS011;64133;56.002;37.208;2023-06-14T04:19:43;3.65;;;2.85;;
75548;SDS011;64133;56.002;37.208;2023-06-14T04:24:47;5.53;;;2.92;;
75548;SDS011;64133;56.002;37.208;2023-06-14T04:29:52;5.67;;;2.72;;
75548;SDS011;64133;56.002;37.208;2023-06-14T04:34:57;5.58;;;2.83;;
75548;SDS011;64133;56.002;37.208;2023-06-14T04:40:02;5.72;;;3.35;;
75548;SDS011;64133;56.002;37.208;2023-06-14T04:45:09;5.95;;;2.70;;
75548;SDS011;64133;56.002;37.208;2023-06-14T04:55:20;5.28;;;2.80;;
75548;SDS011;64133;56.002;37.208;2023-06-14T05:00:24;5.47;;;3.25;;
75548;SDS011;64133;56.002;37.208;2023-06-14T05:05:29;4.65;;;2.65;;
75548;SDS011;64133;56.002;37.208;2023-06-14T05:10:34;6.53;;;2.40;;
75548;SDS011;64133;56.002;37.208;2023-06-14T05:15:38;5.97;;;2.35;;
75548;SDS011;64133;56.002;37.208;2023-06-14T05:20:43;3.47;;;2.08;;
75548;SDS011;64133;56.002;37.208;2023-06-14T05:25:48;3.77;;;2.05;;
75548;SDS011;64133;56.002;37.208;2023-06-14T05:30:52;3.33;;;1.85;;
75548;SDS011;64133;56.002;37.208;2023-06-14T05:35:57;5.53;;;2.30;;
75548;SDS011;64133;56.002;37.208;2023-06-14T05:41:02;5.70;;;2.22;;
75548;SDS011;64133;56.002;37.208;2023-06-14T05:46:06;4.80;;;2.12;;
75548;SDS011;64133;56.002;37.208;2023-06-14T05:51:11;5.03;;;2.08;;
75548;SDS011;64133;56.002;37.208;2023-06-14T05:56:16;2.80;;;2.35;;
75548;SDS011;64133;56.002;37.208;2023-06-14T06:01:20;3.08;;;2.00;;
75548;SDS011;64133;56.002;37.208;2023-06-14T06:06:25;6.53;;;2.45;;
75548;SDS011;64133;56.002;37.208;2023-06-14T06:11:30;4.67;;;2.10;;
75548;SDS011;64133;56.002;37.208;2023-06-14T06:16:34;5.60;;;2.65;;
75548;SDS011;64133;56.002;37.208;2023-06-14T06:21:39;4.08;;;2.27;;
75548;SDS011;64133;56.002;37.208;2023-06-14T06:26:50;3.47;;;1.90;;
75548;SDS011;64133;56.002;37.208;2023-06-14T06:31:54;4.62;;;2.30;;
75548;SDS011;64133;56.002;37.208;2023-06-14T06:36:59;6.35;;;4.50;;
75548;SDS011;64133;56.002;37.208;2023-06-14T06:42:04;4.47;;;2.30;;
75548;SDS011;64133;56.002;37.208;2023-06-14T06:47:09;4.97;;;2.20;;
75548;SDS011;64133;56.002;37.208;2023-06-14T06:52:14;3.05;;;2.00;;
75548;SDS011;64133;56.002;37.208;2023-06-14T06:57:18;2.55;;;2.10;;
75548;SDS011;64133;56.002;37.208;2023-06-14T07:02:23;4.47;;;2.40;;
75548;SDS011;64133;56.002;37.208;2023-06-14T07:07:28;3.87;;;2.30;;
75548;SDS011;64133;56.002;37.208;2023-06-14T07:12:33;3.90;;;2.20;;
75548;SDS011;64133;56.002;37.208;2023-06-14T07:17:38;2.72;;;2.00;;
75548;SDS011;64133;56.002;37.208;2023-06-14T07:22:43;4.97;;;2.35;;
75548;SDS011;64133;56.002;37.208;2023-06-14T07:27:47;5.80;;;2.40;;
75548;SDS011;64133;56.002;37.208;2023-06-14T07:32:52;4.12;;;3.40;;
75548;SDS011;64133;56.002;37.208;2023-06-14T07:37:57;3.95;;;2.20;;
75548;SDS011;64133;56.002;37.208;2023-06-14T07:43:05;3.60;;;2.10;;
75548;SDS011;64133;56.002;37.208;2023-06-14T07:48:13;4.55;;;2.50;;
75548;SDS011;64133;56.002;37.208;2023-06-14T07:53:17;3.72;;;2.55;;
75548;SDS011;64133;56.002;37.208;2023-06-14T08:03:25;4.72;;;2.08;;
75548;SDS011;64133;56.002;37.208;2023-06-14T08:08:30;3.10;;;2.15;;
75548;SDS011;64133;56.002;37.208;2023-06-14T08:13:34;3.65;;;2.15;;
75548;SDS011;64133;56.002;37.208;2023-06-14T08:18:39;5.25;;;2.27;;
75548;SDS011;64133;56.002;37.208;2023-06-14T08:23:44;3.22;;;2.12;;
75548;SDS011;64133;56.002;37.208;2023-06-14T08:28:48;4.08;;;2.40;;
75548;SDS011;64133;56.002;37.208;2023-06-14T08:33:53;4.15;;;1.92;;
75548;SDS011;64133;56.002;37.208;2023-06-14T08:38:58;3.08;;;2.00;;
75548;SDS011;64133;56.002;37.208;2023-06-14T08:44:03;4.47;;;2.87;;
75548;SDS011;64133;56.002;37.208;2023-06-14T08:49:07;4.95;;;2.30;;
75548;SDS011;64133;56.002;37.208;2023-06-14T08:54:12;6.10;;;2.58;;
75548;SDS011;64133;56.002;37.208;2023-06-14T08:59:17;5.55;;;2.30;;
75548;SDS011;64133;56.002;37.208;2023-06-14T09:04:21;6.25;;;3.00;;
75548;SDS011;64133;56.002;37.208;2023-06-14T09:09:27;3.60;;;2.45;;
75548;SDS011;64133;56.002;37.208;2023-06-14T09:14:31;3.08;;;2.15;;
75548;SDS011;64133;56.002;37.208;2023-06-14T09:19:36;5.83;;;2.92;;
75548;SDS011;64133;56.002;37.208;2023-06-14T09:24:42;4.33;;;2.30;;
75548;SDS011;64133;56.002;37.208;2023-06-14T09:29:46;3.98;;;2.22;;
75548;SDS011;64133;56.002;37.208;2023-06-14T09:34:51;4.62;;;2.27;;
75548;SDS011;64133;56.002;37.208;2023-06-14T09:39:56;4.75;;;3.12;;
75548;SDS011;64133;56.002;37.208;2023-06-14T09:45:01;5.70;;;3.33;;
75548;SDS011;64133;56.002;37.208;2023-06-14T09:50:06;3.80;;;2.30;;
75548;SDS011;64133;56.002;37.208;2023-06-14T09:55:12;3.60;;;2.37;;
75548;SDS011;64133;56.002;37.208;2023-06-14T10:00:17;5.25;;;2.60;;
75548;SDS011;64133;56.002;37.208;2023-06-14T10:05:22;4.03;;;2.25;;
75548;SDS011;64133;56.002;37.208;2023-06-14T10:10:27;4.30;;;2.22;;
75548;SDS011;64133;56.002;37.208;2023-06-14T10:15:32;3.40;;;2.52;;
75548;SDS011;64133;56.002;37.208;2023-06-14T10:20:38;4.58;;;2.52;;
75548;SDS011;64133;56.002;37.208;2023-06-14T10:25:42;3.80;;;1.85;;
75548;SDS011;64133;56.002;37.208;2023-06-14T10:31:03;4.60;;;2.50;;
75548;SDS011;64133;56.002;37.208;2023-06-14T10:36:08;5.67;;;2.37;;
75548;SDS011;64133;56.002;37.208;2023-06-14T10:41:14;4.92;;;2.45;;
75548;SDS011;64133;56.002;37.208;2023-06-14T10:46:18;4.47;;;2.45;;
75548;SDS011;64133;56.002;37.208;2023-06-14T10:51:24;5.03;;;2.27;;
75548;SDS011;64133;56.002;37.208;2023-06-14T10:56:29;4.97;;;2.50;;
75548;SDS011;64133;56.002;37.208;2023-06-14T11:01:36;6.17;;;2.50;;
75548;SDS011;64133;56.002;37.208;2023-06-14T11:06:47;4.70;;;2.52;;
75548;SDS011;64133;56.002;37.208;2023-06-14T11:11:51;3.80;;;2.80;;
75548;SDS011;64133;56.002;37.208;2023-06-14T11:16:56;5.83;;;3.10;;
75548;SDS011;64133;56.002;37.208;2023-06-14T11:22:01;5.05;;;2.62;;
75548;SDS011;64133;56.002;37.208;2023-06-14T11:27:06;6.05;;;2.83;;
75548;SDS011;64133;56.002;37.208;2023-06-14T11:32:11;6.20;;;2.52;;
75548;SDS011;64133;56.002;37.208;2023-06-14T11:37:15;5.53;;;2.58;;
75548;SDS011;64133;56.002;37.208;2023-06-14T11:42:20;6.28;;;2.47;;
75548;SDS011;64133;56.002;37.208;2023-06-14T11:47:25;4.17;;;2.02;;
75548;SDS011;64133;56.002;37.208;2023-06-14T11:52:32;4.37;;;2.08;;
75548;SDS011;64133;56.002;37.208;2023-06-14T11:57:36;3.22;;;2.27;;
75548;SDS011;64133;56.002;37.208;2023-06-14T12:02:41;6.50;;;2.35;;
75548;SDS011;64133;56.002;37.208;2023-06-14T12:07:46;4.65;;;2.08;;
75548;SDS011;64133;56.002;37.208;2023-06-14T12:12:51;2.67;;;1.90;;
75548;SDS011;64133;56.002;37.208;2023-06-14T12:17:56;4.10;;;2.12;;
75548;SDS011;64133;56.002;37.208;2023-06-14T12:23:02;4.42;;;2.25;;
75548;SDS011;64133;56.002;37.208;2023-06-14T12:28:05;5.42;;;2.10;;
75548;SDS011;64133;56.002;37.208;2023-06-14T12:33:10;3.83;;;2.05;;
75548;SDS011;64133;56.002;37.208;2023-06-14T12:38:14;3.55;;;1.98;;
75548;SDS011;64133;56.002;37.208;2023-06-14T12:43:19;4.78;;;2.30;;
75548;SDS011;64133;56.002;37.208;2023-06-14T12:48:24;2.85;;;1.85;;
75548;SDS011;64133;56.002;37.208;2023-06-14T12:53:29;5.05;;;2.00;;
75548;SDS011;64133;56.002;37.208;2023-06-14T12:58:34;5.37;;;2.35;;
75548;SDS011;64133;56.002;37.208;2023-06-14T13:03:38;6.12;;;2.33;;
75548;SDS011;64133;56.002;37.208;2023-06-14T13:08:43;3.42;;;2.10;;
75548;SDS011;64133;56.002;37.208;2023-06-14T13:13:48;4.05;;;2.30;;
75548;SDS011;64133;56.002;37.208;2023-06-14T13:18:52;3.45;;;2.27;;
75548;SDS011;64133;56.002;37.208;2023-06-14T13:23:57;4.00;;;2.40;;
75548;SDS011;64133;56.002;37.208;2023-06-14T13:29:02;4.37;;;2.45;;
75548;SDS011;64133;56.002;37.208;2023-06-14T13:34:06;5.15;;;2.22;;
75548;SDS011;64133;56.002;37.208;2023-06-14T13:39:11;2.85;;;1.80;;
75548;SDS011;64133;56.002;37.208;2023-06-14T13:44:16;3.87;;;2.45;;
75548;SDS011;64133;56.002;37.208;2023-06-14T13:49:23;4.20;;;2.67;;
75548;SDS011;64133;56.002;37.208;2023-06-14T13:54:27;4.75;;;2.50;;
75548;SDS011;64133;56.002;37.208;2023-06-14T13:59:32;4.08;;;2.20;;
75548;SDS011;64133;56.002;37.208;2023-06-14T14:04:37;4.87;;;2.83;;
75548;SDS011;64133;56.002;37.208;2023-06-14T14:09:41;4.58;;;2.02;;
75548;SDS011;64133;56.002;37.208;2023-06-14T14:14:46;3.90;;;2.50;;
75548;SDS011;64133;56.002;37.208;2023-06-14T14:19:51;6.22;;;3.58;;
75548;SDS011;64133;56.002;37.208;2023-06-14T14:24:55;5.08;;;2.98;;
75548;SDS011;64133;56.002;37.208;2023-06-14T14:30:00;3.92;;;2.20;;
75548;SDS011;64133;56.002;37.208;2023-06-14T14:35:06;3.58;;;2.45;;
75548;SDS011;64133;56.002;37.208;2023-06-14T14:40:12;3.98;;;2.40;;
75548;SDS011;64133;56.002;37.208;2023-06-14T14:45:17;3.52;;;2.33;;
75548;SDS011;64133;56.002;37.208;2023-06-14T14:50:22;7.17;;;3.70;;
75548;SDS011;64133;56.002;37.208;2023-06-14T14:55:26;5.70;;;3.40;;
75548;SDS011;64133;56.002;37.208;2023-06-14T15:00:31;2.75;;;1.90;;
75548;SDS011;64133;56.002;37.208;2023-06-14T15:05:36;3.25;;;1.85;;
75548;SDS011;64133;56.002;37.208;2023-06-14T15:10:42;5.28;;;2.12;;
75548;SDS011;64133;56.002;37.208;2023-06-14T15:15:47;4.95;;;2.52;;
75548;SDS011;64133;56.002;37.208;2023-06-14T15:20:52;3.77;;;1.90;;
75548;SDS011;64133;56.002;37.208;2023-06-14T15:25:56;3.75;;;2.33;;
75548;SDS011;64133;56.002;37.208;2023-06-14T15:31:01;3.60;;;1.95;;
75548;SDS011;64133;56.002;37.208;2023-06-14T15:36:06;5.05;;;3.55;;
75548;SDS011;64133;56.002;37.208;2023-06-14T15:41:12;3.80;;;1.50;;
75548;SDS011;64133;56.002;37.208;2023-06-14T15:46:16;4.55;;;1.92;;
75548;SDS011;64133;56.002;37.208;2023-06-14T15:51:21;3.75;;;2.02;;
75548;SDS011;64133;56.002;37.208;2023-06-14T15:56:26;5.92;;;2.17;;
75548;SDS011;64133;56.002;37.208;2023-06-14T16:01:30;8.43;;;2.55;;
75548;SDS011;64133;56.002;37.208;2023-06-14T16:06:35;5.08;;;2.20;;
75548;SDS011;64133;56.002;37.208;2023-06-14T16:11:40;4.35;;;1.92;;
75548;SDS011;64133;56.002;37.208;2023-06-14T16:16:45;5.47;;;3.12;;
75548;SDS011;64133;56.002;37.208;2023-06-14T16:21:50;3.17;;;2.08;;
75548;SDS011;64133;56.002;37.208;2023-06-14T16:26:54;3.40;;;1.70;;
75548;SDS011;64133;56.002;37.208;2023-06-14T16:31:59;3.17;;;2.00;;
75548;SDS011;64133;56.002;37.208;2023-06-14T16:37:04;5.83;;;2.05;;
75548;SDS011;64133;56.002;37.208;2023-06-14T16:42:09;3.92;;;1.85;;
75548;SDS011;64133;56.002;37.208;2023-06-14T16:47:14;4.55;;;2.58;;
75548;SDS011;64133;56.002;37.208;2023-06-14T16:52:18;4.90;;;2.45;;
75548;SDS011;64133;56.002;37.208;2023-06-14T16:57:23;5.53;;;2.62;;
75548;SDS011;64133;56.002;37.208;2023-06-14T17:02:28;6.65;;;2.92;;
75548;SDS011;64133;56.002;37.208;2023-06-14T17:07:32;3.80;;;2.25;;
75548;SDS011;64133;56.002;37.208;2023-06-14T17:12:38;6.65;;;2.45;;
75548;SDS011;64133;56.002;37.208;2023-06-14T17:17:43;4.45;;;2.30;;
75548;SDS011;64133;56.002;37.208;2023-06-14T17:22:48;7.47;;;2.65;;
75548;SDS011;64133;56.002;37.208;2023-06-14T17:27:53;6.60;;;2.83;;
75548;SDS011;64133;56.002;37.208;2023-06-14T17:32:57;6.78;;;3.20;;
75548;SDS011;64133;56.002;37.208;2023-06-14T17:38:03;5.37;;;3.30;;
75548;SDS011;64133;56.002;37.208;2023-06-14T17:43:08;11.65;;;5.35;;
75548;SDS011;64133;56.002;37.208;2023-06-14T17:48:12;5.15;;;2.80;;
75548;SDS011;64133;56.002;37.208;2023-06-14T17:53:17;6.62;;;2.20;;
75548;SDS011;64133;56.002;37.208;2023-06-14T17:58:22;6.87;;;2.17;;
75548;SDS011;64133;56.002;37.208;2023-06-14T18:03:28;3.90;;;2.27;;
75548;SDS011;64133;56.002;37.208;2023-06-14T18:08:33;5.35;;;2.90;;
75548;SDS011;64133;56.002;37.208;2023-06-14T18:13:38;8.10;;;5.35;;
75548;SDS011;64133;56.002;37.208;2023-06-14T18:18:42;6.00;;;2.83;;
75548;SDS011;64133;56.002;37.208;2023-06-14T18:23:47;5.97;;;3.15;;
75548;SDS011;64133;56.002;37.208;2023-06-14T18:28:52;8.10;;;2.87;;
75548;SDS011;64133;56.002;37.208;2023-06-14T18:39:03;7.40;;;3.22;;
75548;SDS011;64133;56.002;37.208;2023-06-14T18:44:08;7.92;;;3.27;;
75548;SDS011;64133;56.002;37.208;2023-06-14T18:49:13;13.55;;;3.25;;
75548;SDS011;64133;56.002;37.208;2023-06-14T18:54:20;8.28;;;4.40;;
75548;SDS011;64133;56.002;37.208;2023-06-14T18:59:24;8.45;;;3.02;;
75548;SDS011;64133;56.002;37.208;2023-06-14T19:04:29;8.10;;;3.02;;
75548;SDS011;64133;56.002;37.208;2023-06-14T19:09:34;6.58;;;2.83;;
75548;SDS011;64133;56.002;37.208;2023-06-14T19:14:39;6.92;;;3.22;;
75548;SDS011;64133;56.002;37.208;2023-06-14T19:19:43;7.30;;;3.40;;
75548;SDS011;64133;56.002;37.208;2023-06-14T19:24:51;6.87;;;2.67;;
75548;SDS011;64133;56.002;37.208;2023-06-14T19:29:58;4.90;;;2.75;;
75548;SDS011;64133;56.002;37.208;2023-06-14T19:35:03;7.40;;;2.70;;
75548;SDS011;64133;56.002;37.208;2023-06-14T19:40:10;8.08;;;2.90;;
75548;SDS011;64133;56.002;37.208;2023-06-14T19:45:16;9.53;;;3.02;;
75548;SDS011;64133;56.002;37.208;2023-06-14T19:50:21;12.35;;;3.83;;
75548;SDS011;64133;56.002;37.208;2023-06-14T19:55:26;11.63;;;5.55;;
75548;SDS011;64133;56.002;37.208;2023-06-14T20:00:30;9.85;;;3.77;;
75548;SDS011;64133;56.002;37.208;2023-06-14T20:05:35;8.00;;;3.70;;
75548;SDS011;64133;56.002;37.208;2023-06-14T20:10:40;7.35;;;3.90;;
75548;SDS011;64133;56.002;37.208;2023-06-14T20:15:45;6.47;;;2.90;;
75548;SDS011;64133;56.002;37.208;2023-06-14T20:20:50;11.05;;;3.65;;
75548;SDS011;64133;56.002;37.208;2023-06-14T20:25:54;8.98;;;3.50;;
75548;SDS011;64133;56.002;37.208;2023-06-14T20:30:59;13.98;;;4.15;;
75548;SDS011;64133;56.002;37.208;2023-06-14T20:36:04;10.23;;;4.15;;
75548;SDS011;64133;56.002;37.208;2023-06-14T20:41:09;7.80;;;3.40;;
75548;SDS011;64133;56.002;37.208;2023-06-14T20:46:13;7.90;;;3.62;;
75548;SDS011;64133;56.002;37.208;2023-06-14T20:51:28;13.55;;;4.22;;
75548;SDS011;64133;56.002;37.208;2023-06-14T20:56:33;12.90;;;5.72;;
75548;SDS011;64133;56.002;37.208;2023-06-14T21:01:37;10.85;;;4.35;;
75548;SDS011;64133;56.002;37.208;2023-06-14T21:06:42;10.00;;;4.22;;
75548;SDS011;64133;56.002;37.208;2023-06-14T21:11:47;11.68;;;5.00;;
75548;SDS011;64133;56.002;37.208;2023-06-14T21:16:51;10.72;;;4.30;;
75548;SDS011;64133;56.002;37.208;2023-06-14T21:21:56;9.50;;;4.17;;
75548;SDS011;64133;56.002;37.208;2023-06-14T21:27:01;10.15;;;4.10;;
75548;SDS011;64133;56.002;37.208;2023-06-14T21:32:06;8.63;;;4.58;;
75548;SDS011;64133;56.002;37.208;2023-06-14T21:37:12;8.95;;;4.30;;
75548;SDS011;64133;56.002;37.208;2023-06-14T21:42:16;10.40;;;3.87;;
75548;SDS011;64133;56.002;37.208;2023-06-14T21:47:21;13.45;;;4.25;;
75548;SDS011;64133;56.002;37.208;2023-06-14T21:52:26;10.15;;;5.15;;
75548;SDS011;64133;56.002;37.208;2023-06-14T21:57:30;14.60;;;5.20;;
75548;SDS011;64133;56.002;37.208;2023-06-14T22:02:35;13.53;;;4.65;;
75548;SDS011;64133;56.002;37.208;2023-06-14T22:07:39;14.58;;;5.45;;
75548;SDS011;64133;56.002;37.208;2023-06-14T22:12:44;11.03;;;5.58;;
75548;SDS011;64133;56.002;37.208;2023-06-14T22:17:49;16.07;;;5.42;;
75548;SDS011;64133;56.002;37.208;2023-06-14T22:22:54;13.55;;;5.28;;
75548;SDS011;64133;56.002;37.208;2023-06-14T22:28:00;17.25;;;5.42;;
75548;SDS011;64133;56.002;37.208;2023-06-14T22:33:05;12.07;;;4.62;;
75548;SDS011;64133;56.002;37.208;2023-06-14T22:38:09;14.55;;;5.30;;
75548;SDS011;64133;56.002;37.208;2023-06-14T22:43:14;11.63;;;4.75;;
75548;SDS011;64133;56.002;37.208;2023-06-14T22:48:20;11.63;;;5.08;;
75548;SDS011;64133;56.002;37.208;2023-06-14T22:53:24;12.68;;;4.87;;
75548;SDS011;64133;56.002;37.208;2023-06-14T22:58:29;16.67;;;5.85;;
75548;SDS011;64133;56.002;37.208;2023-06-14T23:03:34;12.35;;;5.80;;
75548;SDS011;64133;56.002;37.208;2023-06-14T23:08:38;13.15;;;5.50;;
75548;SDS011;64133;56.002;37.208;2023-06-14T23:13:44;13.88;;;6.10;;
75548;SDS011;64133;56.002;37.208;2023-06-14T23:18:49;12.00;;;5.17;;
75548;SDS011;64133;56.002;37.208;2023-06-14T23:23:54;13.18;;;6.78;;
75548;SDS011;64133;56.002;37.208;2023-06-14T23:28:58;10.18;;;5.35;;
75548;SDS011;64133;56.002;37.208;2023-06-14T23:34:03;12.55;;;5.95;;
75548;SDS011;64133;56.002;37.208;2023-06-14T23:39:08;19.35;;;6.55;;
75548;SDS011;64133;56.002;37.208;2023-06-14T23:44:12;13.43;;;5.80;;
75548;SDS011;64133;56.002;37.208;2023-06-14T23:49:17;15.75;;;5.87;;
75548;SDS011;64133;56.002;37.208;2023-06-14T23:54:22;11.75;;;6.20;;
75548;SDS011;64133;56.002;37.208;2023-06-14T23:59:26;13.80;;;5.80;;
